Time;durP1;ratioP1;P1;durP2;ratioP2;P2;SDS_P1;SDS_P2;PMS_P1;PMS_P2;Temp;Humidity;BMP_temperature;BMP_pressure;BME280_temperature;BME280_humidity;BME280_pressure;Samples;Min_cycle;Max_cycle;Signal;HPM_P1;HPM_P2
2023/09/10 00:01:28;;;;;;;40.33;28.83;;;19.60;99.90;;;;;;5064409;28;20363;-67
2023/09/10 00:03:53;;;;;;;43.22;29.25;;;19.60;99.90;;;;;;5050365;28;20045;-67
2023/09/10 00:06:19;;;;;;;38.60;28.02;;;19.60;99.90;;;;;;5048053;28;20048;-67
2023/09/10 00:08:45;;;;;;;41.63;28.13;;;19.60;99.90;;;;;;5043392;28;20045;-66
2023/09/10 00:11:10;;;;;;;41.53;28.63;;;19.60;99.90;;;;;;5056101;28;20036;-67
2023/09/10 00:13:36;;;;;;;42.97;28.85;;;19.60;99.90;;;;;;5039719;28;20048;-67
2023/09/10 00:16:02;;;;;;;38.60;27.15;;;19.60;99.90;;;;;;5045657;28;20044;-67
2023/09/10 00:18:28;;;;;;;40.05;26.88;;;19.50;99.90;;;;;;5046809;28;20040;-67
2023/09/10 00:20:54;;;;;;;40.63;28.25;;;19.50;99.90;;;;;;5066747;28;20336;-67
2023/09/10 00:23:20;;;;;;;;;;;19.50;99.90;;;;;;5046330;28;20040;-66
2023/09/10 00:25:45;;;;;;;39.75;27.25;;;19.50;99.90;;;;;;5023948;28;20415;-67
2023/09/10 00:28:11;;;;;;;42.33;28.13;;;19.50;99.90;;;;;;5050274;28;20541;-67
2023/09/10 00:30:37;;;;;;;35.15;25.33;;;19.40;99.90;;;;;;5038124;28;20461;-67
2023/09/10 00:33:02;;;;;;;41.10;26.88;;;19.40;99.90;;;;;;5066744;28;20032;-67
2023/09/10 00:35:28;;;;;;;38.20;27.50;;;19.40;99.90;;;;;;5059089;28;20464;-67
2023/09/10 00:37:54;;;;;;;40.03;28.52;;;19.40;99.90;;;;;;5046736;28;20044;-67
2023/09/10 00:40:19;;;;;;;40.35;27.80;;;19.30;99.90;;;;;;5062618;28;20090;-67
2023/09/10 00:42:45;;;;;;;38.10;26.95;;;19.30;99.90;;;;;;5055067;28;20135;-66
2023/09/10 00:45:12;;;;;;;37.38;26.42;;;19.30;99.90;;;;;;5027709;28;20127;-66
2023/09/10 00:47:43;;;;;;;36.78;24.77;;;19.30;99.90;;;;;;5050084;28;20047;-67
2023/09/10 00:50:10;;;;;;;35.85;24.95;;;19.30;99.90;;;;;;5025818;28;20044;-66
2023/09/10 00:52:39;;;;;;;34.13;24.50;;;19.20;99.90;;;;;;5045464;28;20048;-67
2023/09/10 00:55:05;;;;;;;39.40;26.13;;;19.30;99.90;;;;;;5040811;28;20040;-67
2023/09/10 00:57:32;;;;;;;37.20;25.13;;;19.20;99.90;;;;;;5045247;28;20498;-67
2023/09/10 00:59:58;;;;;;;33.58;23.55;;;19.20;99.90;;;;;;5046282;28;20083;-66
2023/09/10 01:02:24;;;;;;;34.00;24.20;;;19.10;99.90;;;;;;5060408;28;20075;-67
2023/09/10 01:04:50;;;;;;;;;;;19.10;99.90;;;;;;5059925;28;20049;-66
2023/09/10 01:07:16;;;;;;;32.17;22.98;;;19.10;99.90;;;;;;5051407;28;19934;-67
2023/09/10 01:09:42;;;;;;;34.35;24.55;;;19.10;99.90;;;;;;5038515;28;20049;-66
2023/09/10 01:12:32;;;;;;;33.00;23.40;;;19.10;99.90;;;;;;5029150;28;20294;-67
2023/09/10 01:15:23;;;;;;;43.13;27.20;;;19.10;99.90;;;;;;5049900;28;20049;-67
2023/09/10 01:17:57;;;;;;;39.95;27.42;;;19.00;99.90;;;;;;5027259;28;20047;-67
2023/09/10 01:20:32;;;;;;;36.83;26.95;;;19.00;99.90;;;;;;5037401;28;20032;-66
2023/09/10 01:23:07;;;;;;;38.78;27.20;;;19.00;99.90;;;;;;5037363;28;20048;-67
2023/09/10 01:25:34;;;;;;;37.35;26.35;;;19.00;99.90;;;;;;5046947;28;20094;-69
2023/09/10 01:28:03;;;;;;;40.05;26.45;;;19.00;99.90;;;;;;5041340;28;20084;-68
2023/09/10 01:30:30;;;;;;;37.97;25.75;;;19.00;99.90;;;;;;5069490;28;20484;-67
2023/09/10 01:33:03;;;;;;;39.10;26.70;;;19.00;99.90;;;;;;5069463;28;20086;-67
2023/09/10 01:35:51;;;;;;;36.47;25.30;;;19.00;99.90;;;;;;5030386;28;20119;-68
2023/09/10 01:38:46;;;;;;;37.15;25.83;;;19.00;99.90;;;;;;5042952;28;20550;-68
2023/09/10 01:41:19;;;;;;;41.13;27.52;;;19.00;99.90;;;;;;5055273;28;20159;-68
2023/09/10 01:43:46;;;;;;;42.13;27.90;;;19.00;99.90;;;;;;5048657;28;20036;-67
2023/09/10 01:46:13;;;;;;;41.00;27.92;;;18.90;99.90;;;;;;5053138;28;20523;-67
2023/09/10 01:48:39;;;;;;;34.80;24.85;;;18.90;99.90;;;;;;5050709;28;20391;-68
2023/09/10 01:51:05;;;;;;;39.53;26.13;;;18.90;99.90;;;;;;5027732;28;20119;-67
2023/09/10 01:53:31;;;;;;;32.50;23.50;;;18.90;99.90;;;;;;5053127;28;20170;-67
2023/09/10 01:55:56;;;;;;;34.60;23.63;;;18.90;99.90;;;;;;5049762;28;20052;-67
2023/09/10 01:58:23;;;;;;;34.50;22.63;;;18.90;99.90;;;;;;5047165;28;20322;-68
2023/09/10 02:00:48;;;;;;;35.35;23.73;;;18.90;99.90;;;;;;5059311;28;20575;-67
2023/09/10 02:03:14;;;;;;;37.42;23.60;;;18.90;99.90;;;;;;5050507;28;20078;-68
2023/09/10 02:05:43;;;;;;;34.78;23.27;;;18.80;99.90;;;;;;5066623;28;20051;-67
2023/09/10 02:08:09;;;;;;;33.53;23.45;;;18.80;99.90;;;;;;5038527;28;20115;-67
2023/09/10 02:10:35;;;;;;;35.97;24.58;;;18.80;99.90;;;;;;5068053;28;20140;-67
2023/09/10 02:13:00;;;;;;;;;;;18.80;99.90;;;;;;5050789;28;20550;-67
2023/09/10 02:15:27;;;;;;;33.92;23.13;;;18.80;99.90;;;;;;5049993;28;20004;-67
2023/09/10 02:17:53;;;;;;;32.45;22.98;;;18.80;99.90;;;;;;5036443;28;20033;-67
2023/09/10 02:20:19;;;;;;;35.38;24.50;;;18.80;99.90;;;;;;5038856;28;20528;-69
2023/09/10 02:22:45;;;;;;;33.95;24.20;;;18.70;99.90;;;;;;5043658;28;20088;-68
2023/09/10 02:25:10;;;;;;;35.08;23.52;;;18.70;99.90;;;;;;5050395;28;20506;-67
2023/09/10 02:27:36;;;;;;;36.42;24.08;;;18.70;99.90;;;;;;5043628;28;20037;-66
2023/09/10 02:30:07;;;;;;;35.55;24.48;;;18.70;99.90;;;;;;5068449;28;20047;-67
2023/09/10 02:32:33;;;;;;;36.13;24.77;;;18.70;99.90;;;;;;5057449;28;20045;-67
2023/09/10 02:34:58;;;;;;;36.60;24.75;;;18.70;99.90;;;;;;5068072;28;20041;-66
2023/09/10 02:37:24;;;;;;;33.25;23.55;;;18.70;99.90;;;;;;5051305;28;20094;-68
2023/09/10 02:39:50;;;;;;;35.22;23.58;;;18.70;99.90;;;;;;5067878;28;20428;-68
2023/09/10 02:42:17;;;;;;;38.00;24.63;;;18.70;99.90;;;;;;5047931;28;20461;-67
2023/09/10 02:44:43;;;;;;;38.78;23.75;;;18.60;99.90;;;;;;5066025;28;20094;-66
2023/09/10 02:47:09;;;;;;;35.53;23.52;;;18.70;99.90;;;;;;5067665;28;20394;-68
2023/09/10 02:49:34;;;;;;;35.10;23.73;;;18.70;99.90;;;;;;5055738;28;20067;-67
2023/09/10 02:52:00;;;;;;;34.50;23.90;;;18.60;99.90;;;;;;5065213;28;20186;-68
2023/09/10 02:54:27;;;;;;;35.35;23.90;;;18.60;99.90;;;;;;5045839;28;20348;-69
2023/09/10 02:56:53;;;;;;;37.33;22.95;;;18.60;99.90;;;;;;5057511;28;20045;-68
2023/09/10 02:59:25;;;;;;;35.17;23.90;;;18.60;99.90;;;;;;5050941;28;20044;-67
2023/09/10 03:01:52;;;;;;;35.83;24.15;;;18.60;99.90;;;;;;5036686;28;20285;-67
2023/09/10 03:04:18;;;;;;;33.97;23.85;;;18.60;99.90;;;;;;5049174;28;20044;-67
2023/09/10 03:06:45;;;;;;;32.88;23.35;;;18.60;99.90;;;;;;5059416;28;20519;-67
2023/09/10 03:09:14;;;;;;;31.63;23.17;;;18.60;99.90;;;;;;5043928;28;20487;-67
2023/09/10 03:11:40;;;;;;;38.92;23.90;;;18.50;99.90;;;;;;5065020;28;20060;-67
2023/09/10 03:14:06;;;;;;;30.52;21.95;;;18.50;99.90;;;;;;5043843;28;20449;-67
2023/09/10 03:16:38;;;;;;;31.58;22.65;;;18.50;99.90;;;;;;5074057;22;20045;-71
2023/09/10 03:19:04;;;;;;;32.75;22.55;;;18.50;99.90;;;;;;5010252;28;20449;-72
2023/09/10 03:21:30;;;;;;;34.00;23.15;;;18.50;99.90;;;;;;5025509;28;20473;-72
2023/09/10 03:23:56;;;;;;;32.53;22.83;;;18.50;99.90;;;;;;5048337;28;20056;-72
2023/09/10 03:26:22;;;;;;;;;;;18.50;99.90;;;;;;5052183;28;20145;-72
2023/09/10 03:28:48;;;;;;;32.80;21.48;;;18.50;99.90;;;;;;5035901;28;20027;-73
2023/09/10 03:31:13;;;;;;;33.72;23.15;;;18.50;99.90;;;;;;5048750;28;20048;-73
2023/09/10 03:33:40;;;;;;;33.13;23.35;;;18.50;99.90;;;;;;5054524;28;20067;-72
2023/09/10 03:36:06;;;;;;;30.55;22.73;;;18.50;99.90;;;;;;5063307;28;20040;-72
2023/09/10 03:38:31;;;;;;;31.33;21.55;;;18.40;99.90;;;;;;5047962;28;20420;-72
2023/09/10 03:40:57;;;;;;;32.50;22.48;;;18.40;99.90;;;;;;5047269;28;20075;-73
2023/09/10 03:43:23;;;;;;;31.35;22.60;;;18.40;99.90;;;;;;5039245;28;20037;-72
2023/09/10 03:45:49;;;;;;;34.50;22.45;;;18.40;99.90;;;;;;5014984;28;20052;-72
2023/09/10 03:48:14;;;;;;;29.95;20.98;;;18.40;99.90;;;;;;5025709;28;20212;-72
2023/09/10 03:50:40;;;;;;;32.83;22.33;;;18.40;99.90;;;;;;5047108;28;20044;-73
2023/09/10 03:53:06;;;;;;;33.97;22.67;;;18.30;99.90;;;;;;5050231;28;20052;-73
2023/09/10 03:55:32;;;;;;;38.17;22.45;;;18.30;99.90;;;;;;5032004;28;20045;-73
2023/09/10 03:57:58;;;;;;;35.10;22.55;;;18.30;99.90;;;;;;5028613;28;20378;-73
2023/09/10 04:00:23;;;;;;;31.90;22.33;;;18.30;99.90;;;;;;5030991;28;20417;-72
2023/09/10 04:02:49;;;;;;;32.03;22.27;;;18.30;99.90;;;;;;5046563;28;20513;-72
2023/09/10 04:05:16;;;;;;;33.40;21.73;;;18.20;99.90;;;;;;5048900;28;20041;-72
2023/09/10 04:07:42;;;;;;;35.13;21.98;;;18.20;99.90;;;;;;5048117;28;20438;-73
2023/09/10 04:10:08;;;;;;;32.38;22.45;;;18.20;99.90;;;;;;5048879;28;20094;-73
2023/09/10 04:12:34;;;;;;;31.38;22.10;;;18.20;99.90;;;;;;5013459;28;20486;-73
2023/09/10 04:15:00;;;;;;;;;;;18.20;99.90;;;;;;5031667;28;20047;-72
2023/09/10 04:17:28;;;;;;;31.65;22.75;;;18.10;99.90;;;;;;5030414;28;19916;-73
2023/09/10 04:19:57;;;;;;;32.53;22.17;;;18.10;99.90;;;;;;5030955;28;20139;-73
2023/09/10 04:22:23;;;;;;;34.13;23.05;;;18.10;99.90;;;;;;5050229;28;20041;-72
2023/09/10 04:24:49;;;;;;;32.63;21.55;;;18.10;99.90;;;;;;5028994;28;20513;-73
2023/09/10 04:27:15;;;;;;;33.50;23.45;;;18.00;99.90;;;;;;5031146;28;20048;-73
2023/09/10 04:29:41;;;;;;;35.53;22.48;;;18.00;99.90;;;;;;5028581;28;20044;-73
2023/09/10 04:32:07;;;;;;;30.65;21.70;;;18.00;99.90;;;;;;5022638;28;20056;-73
2023/09/10 04:34:32;;;;;;;33.08;23.02;;;18.00;99.90;;;;;;5029835;28;20593;-73
2023/09/10 04:36:58;;;;;;;31.70;22.60;;;18.00;99.90;;;;;;5026706;28;20049;-72
2023/09/10 04:39:24;;;;;;;34.72;23.35;;;18.00;99.90;;;;;;5030163;28;20468;-72
2023/09/10 04:41:49;;;;;;;35.55;23.05;;;18.00;99.90;;;;;;5048631;28;20045;-72
2023/09/10 04:44:16;;;;;;;36.50;23.48;;;18.00;99.90;;;;;;5047834;28;20304;-73
2023/09/10 04:46:41;;;;;;;30.85;21.27;;;17.90;99.90;;;;;;5042562;28;20201;-72
2023/09/10 04:49:07;;;;;;;31.50;23.05;;;17.90;99.90;;;;;;5043328;28;20470;-73
2023/09/10 04:51:33;;;;;;;34.28;22.20;;;17.90;99.90;;;;;;5030009;28;20041;-72
2023/09/10 04:53:59;;;;;;;32.40;22.42;;;17.90;99.90;;;;;;5026583;28;20055;-73
2023/09/10 04:56:24;;;;;;;33.33;23.00;;;17.80;99.90;;;;;;5046642;28;20051;-72
2023/09/10 04:58:50;;;;;;;35.80;23.23;;;17.80;99.90;;;;;;5049515;28;20067;-73
2023/09/10 05:01:16;;;;;;;34.90;23.00;;;17.80;99.90;;;;;;5030002;28;20040;-72
2023/09/10 05:03:41;;;;;;;32.17;21.95;;;17.90;99.90;;;;;;5025805;28;20051;-73
2023/09/10 05:06:08;;;;;;;32.63;22.70;;;17.80;99.90;;;;;;5030176;28;20087;-73
2023/09/10 05:08:34;;;;;;;34.25;23.50;;;17.80;99.90;;;;;;5033540;28;20068;-72
2023/09/10 05:11:00;;;;;;;;;;;17.80;99.90;;;;;;5030348;28;20434;-72
2023/09/10 05:13:26;;;;;;;33.72;22.35;;;17.80;99.90;;;;;;5061188;28;20183;-73
2023/09/10 05:15:54;;;;;;;31.55;21.55;;;17.80;99.90;;;;;;5048102;28;20044;-72
2023/09/10 05:18:21;;;;;;;32.97;23.30;;;17.80;99.90;;;;;;5028721;28;20044;-73
2023/09/10 05:20:50;;;;;;;35.03;23.80;;;17.80;99.90;;;;;;5024828;28;20045;-72
2023/09/10 05:23:16;;;;;;;35.72;24.83;;;17.80;99.90;;;;;;5021635;28;20037;-73
2023/09/10 05:25:42;;;;;;;35.17;23.73;;;17.80;99.90;;;;;;5027087;28;20424;-73
2023/09/10 05:28:07;;;;;;;34.28;23.63;;;17.80;99.90;;;;;;5027918;28;20320;-72
2023/09/10 05:30:37;;;;;;;32.85;23.67;;;17.80;99.90;;;;;;5031433;28;20048;-73
2023/09/10 05:33:03;;;;;;;36.22;22.13;;;17.80;99.90;;;;;;5027613;28;20083;-73
2023/09/10 05:35:29;;;;;;;34.60;24.23;;;17.80;99.90;;;;;;5026130;28;20108;-72
2023/09/10 05:37:55;;;;;;;35.17;22.85;;;17.90;99.90;;;;;;5023196;28;20041;-73
2023/09/10 05:40:20;;;;;;;36.60;24.67;;;17.90;99.90;;;;;;5017733;28;20525;-73
2023/09/10 05:42:46;;;;;;;34.30;23.73;;;17.90;99.90;;;;;;5027006;28;20111;-73
2023/09/10 05:45:12;;;;;;;37.85;25.23;;;17.90;99.90;;;;;;5027396;28;20354;-73
2023/09/10 05:47:37;;;;;;;35.78;24.10;;;17.90;99.90;;;;;;5026921;28;20051;-72
2023/09/10 05:50:04;;;;;;;33.78;23.45;;;17.90;99.90;;;;;;5049801;28;20043;-73
2023/09/10 05:52:30;;;;;;;35.45;24.67;;;17.90;99.90;;;;;;5012046;28;20439;-72
2023/09/10 05:54:55;;;;;;;34.90;23.67;;;18.00;99.90;;;;;;5050641;28;20045;-73
2023/09/10 05:57:21;;;;;;;38.38;25.33;;;18.00;99.90;;;;;;5043911;28;20388;-72
2023/09/10 05:59:46;;;;;;;40.58;25.33;;;18.10;99.90;;;;;;5025502;28;20037;-73
2023/09/10 06:02:12;;;;;;;33.50;23.58;;;18.10;99.90;;;;;;5008881;28;20064;-73
2023/09/10 06:04:38;;;;;;;35.58;24.60;;;18.10;99.90;;;;;;5024388;28;20037;-72
2023/09/10 06:07:04;;;;;;;38.33;25.00;;;18.20;99.90;;;;;;5028000;28;20055;-73
2023/09/10 06:09:30;;;;;;;37.95;24.95;;;18.20;99.90;;;;;;5049775;28;20052;-73
2023/09/10 06:11:57;;;;;;;36.75;25.15;;;18.20;99.90;;;;;;5024059;28;20108;-73
2023/09/10 06:14:23;;;;;;;38.60;26.95;;;18.30;99.90;;;;;;5029513;28;20047;-72
2023/09/10 06:16:49;;;;;;;36.03;24.90;;;18.30;99.90;;;;;;5024613;28;20498;-72
2023/09/10 06:19:15;;;;;;;35.95;24.42;;;18.30;99.90;;;;;;5025570;28;20055;-74
2023/09/10 06:21:41;;;;;;;36.08;25.58;;;18.40;99.90;;;;;;5051520;28;20067;-74
2023/09/10 06:24:07;;;;;;;39.47;25.55;;;18.40;99.90;;;;;;5030141;28;20056;-74
2023/09/10 06:26:33;;;;;;;38.88;25.75;;;18.50;99.90;;;;;;5046438;28;20044;-72
2023/09/10 06:29:00;;;;;;;36.28;25.05;;;18.50;99.90;;;;;;5029618;28;20412;-73
2023/09/10 06:31:26;;;;;;;39.80;25.70;;;18.60;99.90;;;;;;5046351;28;20036;-72
2023/09/10 06:33:54;;;;;;;38.40;23.85;;;18.60;99.90;;;;;;5025832;28;20052;-72
2023/09/10 06:36:20;;;;;;;39.30;24.85;;;18.70;99.90;;;;;;5018793;28;20056;-73
2023/09/10 06:38:49;;;;;;;32.92;23.52;;;18.70;99.90;;;;;;5025441;28;20087;-72
2023/09/10 06:41:15;;;;;;;34.35;22.90;;;18.80;99.90;;;;;;5026598;28;20049;-73
2023/09/10 06:43:42;;;;;;;33.08;22.95;;;18.80;99.90;;;;;;5026535;28;20410;-72
2023/09/10 06:46:08;;;;;;;35.58;23.23;;;18.90;99.90;;;;;;5039383;28;20145;-73
2023/09/10 06:48:33;;;;;;;36.10;24.80;;;18.90;99.90;;;;;;5028685;28;20040;-72
2023/09/10 06:51:01;;;;;;;35.30;24.27;;;19.00;99.90;;;;;;5043158;28;20048;-73
2023/09/10 06:53:30;;;;;;;38.38;24.63;;;19.10;99.90;;;;;;5026681;28;20441;-72
2023/09/10 06:55:57;;;;;;;39.28;23.70;;;19.10;99.90;;;;;;5050225;28;20051;-74
2023/09/10 06:58:23;;;;;;;36.72;24.40;;;19.20;99.90;;;;;;5026185;28;20049;-73
2023/09/10 07:00:49;;;;;;;36.90;25.38;;;19.30;99.90;;;;;;5026984;28;20063;-72
2023/09/10 07:03:15;;;;;;;32.33;23.35;;;19.30;99.90;;;;;;5026019;28;20041;-73
2023/09/10 07:05:41;;;;;;;36.63;24.13;;;19.40;99.90;;;;;;5045420;28;20043;-73
2023/09/10 07:08:08;;;;;;;38.25;24.95;;;19.40;99.90;;;;;;5020739;28;20045;-72
2023/09/10 07:10:34;;;;;;;37.65;24.08;;;19.50;99.90;;;;;;5009232;28;20136;-73
2023/09/10 07:13:09;;;;;;;34.80;23.17;;;19.50;99.90;;;;;;5047420;28;20136;-72
2023/09/10 07:15:36;;;;;;;34.25;22.73;;;19.60;99.90;;;;;;5015471;28;20455;-73
2023/09/10 07:18:03;;;;;;;40.30;25.63;;;19.70;99.90;;;;;;5021137;28;20127;-73
2023/09/10 07:20:29;;;;;;;34.65;22.98;;;19.70;99.90;;;;;;5028920;28;21286;-73
2023/09/10 07:22:55;;;;;;;29.27;21.00;;;19.80;99.90;;;;;;5018591;28;20044;-72
2023/09/10 07:25:20;;;;;;;28.17;20.83;;;19.90;99.90;;;;;;5026124;28;20036;-72
2023/09/10 07:27:46;;;;;;;32.08;22.40;;;19.90;99.90;;;;;;5025108;28;20245;-72
2023/09/10 07:30:12;;;;;;;32.42;20.70;;;20.00;99.90;;;;;;5023920;28;20041;-73
2023/09/10 07:32:41;;;;;;;30.88;21.75;;;20.10;99.90;;;;;;5023213;28;20131;-73
2023/09/10 07:35:07;;;;;;;32.95;21.25;;;20.20;99.90;;;;;;5014716;28;20061;-73
2023/09/10 07:37:33;;;;;;;;;;;20.30;99.90;;;;;;5028013;28;20044;-73
2023/09/10 07:39:59;;;;;;;29.70;20.27;;;20.30;99.90;;;;;;5022165;28;20396;-72
2023/09/10 07:42:25;;;;;;;31.90;20.13;;;20.40;99.90;;;;;;5040960;28;20037;-71
2023/09/10 07:44:50;;;;;;;32.10;19.98;;;20.50;99.90;;;;;;5023619;28;20097;-73
2023/09/10 07:47:16;;;;;;;29.77;20.35;;;20.50;99.90;;;;;;5042007;28;20045;-72
2023/09/10 07:49:42;;;;;;;28.83;21.05;;;20.60;99.90;;;;;;5041768;28;20080;-72
2023/09/10 07:52:08;;;;;;;31.77;20.52;;;20.70;99.90;;;;;;5029273;28;20514;-73
2023/09/10 07:54:35;;;;;;;;;;;20.80;99.90;;;;;;5030137;28;20041;-71
2023/09/10 07:57:03;;;;;;;28.83;20.02;;;20.80;99.90;;;;;;5027585;28;19924;-73
2023/09/10 07:59:29;;;;;;;28.83;19.85;;;20.90;99.90;;;;;;5048226;28;20094;-72
2023/09/10 08:01:55;;;;;;;31.40;22.52;;;21.00;99.90;;;;;;5030484;28;20045;-72
2023/09/10 08:04:20;;;;;;;;;;;21.10;99.90;;;;;;5038329;28;20063;-72
2023/09/10 08:06:46;;;;;;;28.85;19.30;;;21.10;99.90;;;;;;5028189;28;20381;-72
2023/09/10 08:09:12;;;;;;;;;;;21.20;99.90;;;;;;5006496;28;20155;-73
2023/09/10 08:11:37;;;;;;;28.45;19.58;;;21.30;99.90;;;;;;5019421;28;19917;-73
2023/09/10 08:14:03;;;;;;;28.98;19.83;;;21.40;99.90;;;;;;5030801;28;20411;-72
2023/09/10 08:16:29;;;;;;;;;;;21.50;99.90;;;;;;5031832;28;20529;-73
2023/09/10 08:18:54;;;;;;;26.38;19.02;;;21.60;99.90;;;;;;5012710;28;19917;-72
2023/09/10 08:21:20;;;;;;;;;;;21.60;99.90;;;;;;5047699;28;20521;-72
2023/09/10 08:23:47;;;;;;;24.83;17.70;;;21.70;99.90;;;;;;5029222;28;19917;-73
2023/09/10 08:26:13;;;;;;;26.30;18.17;;;21.80;99.90;;;;;;5049690;28;20041;-72
2023/09/10 08:28:39;;;;;;;26.42;19.27;;;21.90;99.90;;;;;;5028584;28;20041;-73
2023/09/10 08:31:08;;;;;;;;;;;21.90;99.90;;;;;;5028512;28;20047;-72
2023/09/10 08:33:33;;;;;;;21.65;16.40;;;22.00;99.90;;;;;;5023641;28;19920;-72
2023/09/10 08:35:59;;;;;;;;;;;22.10;99.90;;;;;;5026905;28;20113;-73
2023/09/10 08:38:24;;;;;;;26.75;16.67;;;22.20;99.90;;;;;;5026030;28;19986;-72
2023/09/10 08:40:59;;;;;;;;;;;22.30;99.90;;;;;;5029856;28;20490;-72
2023/09/10 08:43:56;;;;;;;20.42;15.60;;;22.30;99.90;;;;;;5047907;28;19923;-73
2023/09/10 08:46:30;;;;;;;23.55;16.02;;;22.40;99.90;;;;;;5029287;28;20052;-72
2023/09/10 08:49:00;;;;;;;25.27;16.92;;;22.60;99.90;;;;;;5044521;28;20222;-72
2023/09/10 08:51:31;;;;;;;19.25;14.50;;;22.70;99.90;;;;;;5062017;28;20041;-74
2023/09/10 08:53:58;;;;;;;21.95;15.02;;;22.80;99.90;;;;;;5021512;28;20060;-72
2023/09/10 08:56:26;;;;;;;20.50;13.88;;;22.90;99.90;;;;;;5026876;28;20037;-73
2023/09/10 08:58:52;;;;;;;22.00;15.10;;;23.00;99.90;;;;;;5042016;28;20098;-71
2023/09/10 09:01:19;;;;;;;19.17;13.30;;;23.00;99.90;;;;;;5048833;28;20416;-71
2023/09/10 09:03:47;;;;;;;16.33;12.55;;;23.10;99.90;;;;;;5026523;28;20485;-71
2023/09/10 09:06:14;;;;;;;21.42;14.43;;;23.20;99.90;;;;;;5023866;28;20186;-72
2023/09/10 09:08:47;;;;;;;17.20;12.27;;;23.30;99.90;;;;;;5012348;28;20048;-71
2023/09/10 09:11:15;;;;;;;17.33;13.75;;;23.40;99.90;;;;;;5027698;28;20087;-72
2023/09/10 09:13:45;;;;;;;17.02;12.32;;;23.50;99.90;;;;;;5027940;28;20036;-73
2023/09/10 09:16:11;;;;;;;17.23;12.52;;;23.60;99.90;;;;;;5006748;22;1222368;-69
2023/09/10 09:18:41;;;;;;;18.95;14.05;;;23.70;99.90;;;;;;5057130;28;20052;-70
2023/09/10 09:21:19;;;;;;;20.70;14.95;;;23.80;99.90;;;;;;5060760;28;20387;-70
2023/09/10 09:23:53;;;;;;;17.27;13.43;;;23.90;99.90;;;;;;5075114;28;20083;-70
2023/09/10 09:26:21;;;;;;;17.85;12.23;;;24.00;99.90;;;;;;5054901;28;20502;-70
2023/09/10 09:28:50;;;;;;;18.33;12.32;;;24.10;99.90;;;;;;5073828;28;20093;-70
2023/09/10 09:31:20;;;;;;;15.07;10.90;;;24.20;99.90;;;;;;5048578;28;20036;-70
2023/09/10 09:33:49;;;;;;;14.82;10.98;;;24.30;99.90;;;;;;5059617;28;20052;-70
2023/09/10 09:36:14;;;;;;;19.60;11.07;;;24.40;99.90;;;;;;5053747;28;20517;-70
2023/09/10 09:38:46;;;;;;;15.38;10.60;;;24.50;99.90;;;;;;5054375;28;20075;-70
2023/09/10 09:41:16;;;;;;;17.05;11.52;;;24.60;99.90;;;;;;5044131;28;20061;-70
2023/09/10 09:43:43;;;;;;;16.75;10.80;;;24.70;99.90;;;;;;5037132;28;20090;-70
2023/09/10 09:46:09;;;;;;;11.20;9.30;;;24.80;99.90;;;;;;5057092;28;20354;-69
2023/09/10 09:48:38;;;;;;;17.15;10.93;;;24.90;99.90;;;;;;5054076;28;20123;-70
2023/09/10 09:51:04;;;;;;;17.42;11.38;;;25.00;99.90;;;;;;5078110;28;20056;-69
2023/09/10 09:53:33;;;;;;;12.35;9.23;;;25.10;99.90;;;;;;5035128;28;20112;-69
2023/09/10 09:56:05;;;;;;;14.15;9.52;;;25.20;99.90;;;;;;5054362;28;20489;-69
2023/09/10 09:58:32;;;;;;;12.80;9.80;;;25.30;99.90;;;;;;5054992;28;20036;-70
2023/09/10 10:00:59;;;;;;;11.60;8.50;;;25.30;99.90;;;;;;5056392;28;20103;-70
2023/09/10 10:03:28;;;;;;;18.10;10.20;;;25.40;99.90;;;;;;5074523;28;20028;-70
2023/09/10 10:05:54;;;;;;;12.15;9.20;;;25.50;99.90;;;;;;5072471;28;20036;-73
2023/09/10 10:08:31;;;;;;;11.55;8.73;;;25.60;99.90;;;;;;5054711;28;20367;-70
2023/09/10 10:10:57;;;;;;;10.63;8.68;;;25.70;99.90;;;;;;5049477;28;20047;-70
2023/09/10 10:13:27;;;;;;;14.13;8.73;;;25.70;99.90;;;;;;5058049;28;20105;-70
2023/09/10 10:15:54;;;;;;;14.63;10.13;;;25.90;99.90;;;;;;5053601;28;20040;-70
2023/09/10 10:18:21;;;;;;;16.83;9.93;;;25.90;99.90;;;;;;5054186;28;20037;-70
2023/09/10 10:20:49;;;;;;;12.52;9.05;;;26.00;99.90;;;;;;5073228;28;20051;-70
2023/09/10 10:23:17;;;;;;;14.63;8.48;;;26.10;99.90;;;;;;5051925;28;20135;-70
2023/09/10 10:25:44;;;;;;;10.90;8.75;;;26.20;99.90;;;;;;5041325;28;20414;-70
2023/09/10 10:28:13;;;;;;;10.35;7.85;;;26.30;99.90;;;;;;5056461;28;20041;-71
2023/09/10 10:30:48;;;;;;;11.98;8.48;;;26.30;99.90;;;;;;5076046;28;20032;-72
2023/09/10 10:33:17;;;;;;;10.73;8.60;;;26.40;99.90;;;;;;5073057;28;20445;-72
2023/09/10 10:36:08;;;;;;;13.07;8.45;;;26.50;99.90;;;;;;5048423;28;20207;-74
2023/09/10 10:38:36;;;;;;;13.68;8.07;;;26.60;99.90;;;;;;5032812;28;20130;-71
2023/09/10 10:41:08;;;;;;;14.27;7.28;;;26.70;99.90;;;;;;5073265;28;20043;-72
2023/09/10 10:43:42;;;;;;;12.10;7.45;;;26.70;99.90;;;;;;5068124;28;20513;-73
2023/09/10 10:46:09;;;;;;;11.75;6.97;;;26.80;99.90;;;;;;5069865;28;20032;-74
2023/09/10 10:48:41;;;;;;;9.88;6.68;;;26.90;99.90;;;;;;5047692;28;20037;-72
2023/09/10 10:51:10;;;;;;;14.07;7.05;;;26.90;99.90;;;;;;5061428;28;20508;-71
2023/09/10 10:53:36;;;;;;;8.38;6.05;;;27.00;99.90;;;;;;5051869;28;20514;-72
2023/09/10 10:56:04;;;;;;;8.00;6.72;;;27.10;99.90;;;;;;5069703;28;20131;-71
2023/09/10 10:58:37;;;;;;;9.43;6.55;;;27.20;99.90;;;;;;5035742;28;20070;-71
2023/09/10 11:01:03;;;;;;;10.20;6.85;;;27.30;99.90;;;;;;5061091;28;20140;-72
2023/09/10 11:03:32;;;;;;;10.40;6.93;;;27.40;99.90;;;;;;5079452;28;20715;-70
2023/09/10 11:06:04;;;;;;;11.18;7.57;;;27.50;99.90;;;;;;5075321;28;20043;-72
2023/09/10 11:08:38;;;;;;;12.30;7.35;;;27.50;99.90;;;;;;5073984;28;20342;-71
2023/09/10 11:11:30;;;;;;;11.55;6.70;;;27.50;99.90;;;;;;5071795;28;20477;-72
2023/09/10 11:14:02;;;;;;;11.80;6.45;;;27.60;99.90;;;;;;5058259;28;20178;-73
2023/09/10 11:16:32;;;;;;;8.43;5.97;;;27.70;99.90;;;;;;5052967;28;20040;-72
2023/09/10 11:18:58;;;;;;;8.18;6.15;;;27.70;99.90;;;;;;5053382;28;20056;-74
2023/09/10 11:21:56;;;;;;;12.07;7.35;;;27.80;99.90;;;;;;5058304;28;20041;-75
2023/09/10 11:24:22;;;;;;;9.85;6.13;;;27.90;99.90;;;;;;5057285;28;20032;-70
2023/09/10 11:26:48;;;;;;;10.07;6.82;;;27.90;99.90;;;;;;5051697;28;20521;-70
2023/09/10 11:29:17;;;;;;;10.15;6.20;;;28.00;99.90;;;;;;5073844;28;20040;-70
2023/09/10 11:31:45;;;;;;;10.65;6.22;;;28.10;99.90;;;;;;5066307;28;20512;-70
2023/09/10 11:34:22;;;;;;;10.15;6.13;;;28.30;99.90;;;;;;5049393;28;20434;-70
2023/09/10 11:36:51;;;;;;;8.27;5.85;;;28.30;99.90;;;;;;5050622;28;20052;-70
2023/09/10 11:39:19;;;;;;;10.45;6.10;;;28.40;99.90;;;;;;5068273;28;20043;-70
2023/09/10 11:41:53;;;;;;;13.00;5.95;;;28.50;99.90;;;;;;5054076;28;20051;-70
2023/09/10 11:44:19;;;;;;;11.10;5.85;;;28.60;99.90;;;;;;5052577;28;20036;-70
2023/09/10 11:46:45;;;;;;;9.73;5.88;;;28.60;99.90;;;;;;5033875;28;20058;-70
2023/09/10 11:49:11;;;;;;;11.80;6.25;;;28.70;99.90;;;;;;5058782;28;20430;-70
2023/09/10 11:51:45;;;;;;;11.18;5.40;;;28.70;99.90;;;;;;5059854;28;20047;-70
2023/09/10 11:54:18;;;;;;;10.15;5.75;;;28.80;99.90;;;;;;5066868;28;20075;-70
2023/09/10 11:56:49;;;;;;;12.20;5.25;;;28.80;99.90;;;;;;5077051;28;20485;-70
2023/09/10 11:59:23;;;;;;;10.18;5.05;;;28.90;99.90;;;;;;5073241;28;20106;-70
2023/09/10 12:01:52;;;;;;;8.52;5.63;;;28.90;99.90;;;;;;5057718;28;20059;-70
2023/09/10 12:04:19;;;;;;;9.82;6.07;;;29.00;99.90;;;;;;5070115;28;20039;-70
2023/09/10 12:06:45;;;;;;;7.85;6.00;;;29.00;99.90;;;;;;5071743;28;20378;-73
2023/09/10 12:09:13;;;;;;;10.45;5.35;;;29.00;99.90;;;;;;5060004;28;20165;-73
2023/09/10 12:11:40;;;;;;;11.27;5.68;;;29.10;99.90;;;;;;5071318;28;20123;-72
2023/09/10 12:14:06;;;;;;;10.77;6.82;;;29.10;99.90;;;;;;5056719;28;20044;-72
2023/09/10 12:16:34;;;;;;;9.05;5.60;;;29.20;99.90;;;;;;5054767;28;20455;-73
2023/09/10 12:19:03;;;;;;;11.43;5.97;;;29.30;99.90;;;;;;5053408;28;20040;-72
2023/09/10 12:21:29;;;;;;;8.27;5.05;;;29.40;99.90;;;;;;5077333;28;20044;-72
2023/09/10 12:23:57;;;;;;;15.30;5.95;;;29.40;99.90;;;;;;5058412;28;20098;-72
2023/09/10 12:26:23;;;;;;;10.70;6.20;;;29.50;99.90;;;;;;5067101;28;20033;-73
2023/09/10 12:28:52;;;;;;;7.65;4.78;;;29.50;99.90;;;;;;5068563;28;20399;-74
2023/09/10 12:31:19;;;;;;;9.75;5.50;;;29.60;99.90;;;;;;5058325;28;20044;-73
2023/09/10 12:33:45;;;;;;;8.98;5.65;;;29.70;99.90;;;;;;5051992;28;20050;-70
2023/09/10 12:36:14;;;;;;;13.70;6.72;;;29.80;99.90;;;;;;5049371;28;20636;-70